Suwalki, Poland
Current Conditions -  °F | °C
As of 4:00 PM on Wednesday 22 Oct 2014 (Local Time) from UMMG Reporting Station
Overcast Overcast  
Wind Chill: 32°   Ceiling: 400
Heat Index: 39°   Visibility: 6mi
Dew Point: 37°   Wind: 11mph
Humidity: 93%   Direction: 90°E
Pressure: 29.83"   Gusts: 22mph
Location:  54.11°N, 22.94°E
Report Text: UMMG 221400Z 09005G10MPS 9999 OVC004 04/03 Q1010 NOSIG RMK QBB120
Loading
Personal Weather Stations






























Interactive Weather Map
Tropical Storm Tracking
New forecast layout! Learn more

10-Day Weather Forecast

Advertisements
Track Severe Weather on mobile